Time;durP1;ratioP1;P1;durP2;ratioP2;P2;SDS_P1;SDS_P2;PMS_P1;PMS_P2;Temp;Humidity;BMP_temperature;BMP_pressure;BME280_temperature;BME280_humidity;BME280_pressure;Samples;Min_cycle;Max_cycle;Signal;HPM_P1;HPM_P2
2023/06/28 00:01:51;;;;;;;0.93;0.65;;;;;;;;;;5069303;28;20198;-64
2023/06/28 00:04:18;;;;;;;0.70;0.70;;;;;;;;;;5074895;28;20238;-63
2023/06/28 00:06:45;;;;;;;3.13;0.68;;;;;;;;;;5071094;28;20249;-64
2023/06/28 00:09:12;;;;;;;0.88;0.88;;;;;;;;;;5084090;28;20194;-64
2023/06/28 00:11:39;;;;;;;2.22;0.90;;;;;;;;;;5081566;28;20631;-64
2023/06/28 00:14:08;;;;;;;0.80;0.80;;;;;;;;;;5067474;28;20257;-64
2023/06/28 00:16:35;;;;;;;0.90;0.90;;;;;;;;;;5073320;28;20214;-64
2023/06/28 00:19:02;;;;;;;0.57;0.57;;;;;;;;;;5087358;28;20247;-63
2023/06/28 00:21:29;;;;;;;1.27;1.00;;;;;;;;;;5085706;28;20664;-64
2023/06/28 00:23:56;;;;;;;1.02;0.93;;;;;;;;;;5075339;28;20726;-63
2023/06/28 00:26:24;;;;;;;0.77;0.77;;;;;;;;;;5072042;28;20206;-63
2023/06/28 00:28:51;;;;;;;2.35;0.90;;;;;;;;;;5079320;28;20213;-63
2023/06/28 00:31:20;;;;;;;1.00;1.00;;;;;;;;;;5082877;28;20679;-63
2023/06/28 00:33:47;;;;;;;0.90;0.90;;;;;;;;;;5084101;28;20240;-63
2023/06/28 00:36:14;;;;;;;0.73;0.73;;;;;;;;;;5079220;28;20209;-64
2023/06/28 00:38:41;;;;;;;1.52;1.00;;;;;;;;;;5074531;28;20214;-63
2023/06/28 00:41:08;;;;;;;1.20;1.00;;;;;;;;;;5067504;28;20218;-64
2023/06/28 00:43:35;;;;;;;1.85;1.00;;;;;;;;;;5073434;28;20617;-64
2023/06/28 00:46:02;;;;;;;0.77;0.77;;;;;;;;;;5085661;28;20210;-64
2023/06/28 00:48:31;;;;;;;0.70;0.70;;;;;;;;;;5079488;28;20230;-64
2023/06/28 00:50:58;;;;;;;0.60;0.60;;;;;;;;;;5068755;28;20199;-63
2023/06/28 00:53:25;;;;;;;0.70;0.70;;;;;;;;;;5067637;28;20229;-64
2023/06/28 00:55:53;;;;;;;0.60;0.60;;;;;;;;;;5075376;28;20553;-64
2023/06/28 00:58:21;;;;;;;0.85;0.85;;;;;;;;;;5079378;28;20240;-63
2023/06/28 01:00:48;;;;;;;0.70;0.70;;;;;;;;;;5079926;28;20229;-64
2023/06/28 01:03:17;;;;;;;2.47;0.85;;;;;;;;;;5065991;28;20211;-64
2023/06/28 01:05:47;;;;;;;0.80;0.80;;;;;;;;;;5069198;28;20238;-63
2023/06/28 01:08:14;;;;;;;0.90;0.90;;;;;;;;;;5082436;28;20293;-63
2023/06/28 01:10:42;;;;;;;0.70;0.70;;;;;;;;;;5085168;28;20228;-63
2023/06/28 01:13:09;;;;;;;0.90;0.90;;;;;;;;;;5072150;28;20203;-64
2023/06/28 01:15:36;;;;;;;1.23;0.73;;;;;;;;;;5086902;28;20202;-64
2023/06/28 01:18:05;;;;;;;1.45;1.00;;;;;;;;;;5084928;28;20617;-64
2023/06/28 01:20:32;;;;;;;1.45;0.90;;;;;;;;;;5087104;28;20313;-64
2023/06/28 01:23:02;;;;;;;1.38;1.23;;;;;;;;;;5088710;28;20210;-64
2023/06/28 01:25:29;;;;;;;0.80;0.80;;;;;;;;;;5089060;28;20207;-64
2023/06/28 01:27:56;;;;;;;1.30;1.00;;;;;;;;;;5090520;28;20228;-64
2023/06/28 01:30:25;;;;;;;1.00;1.00;;;;;;;;;;5089213;28;20199;-64
2023/06/28 01:32:52;;;;;;;1.65;0.90;;;;;;;;;;5090100;28;20206;-64
2023/06/28 01:35:19;;;;;;;2.20;1.02;;;;;;;;;;5077828;28;20203;-64
2023/06/28 01:37:47;;;;;;;0.80;0.80;;;;;;;;;;5079062;28;20214;-63
2023/06/28 01:40:16;;;;;;;0.77;0.70;;;;;;;;;;5087167;28;20245;-64
2023/06/28 01:42:43;;;;;;;0.88;0.88;;;;;;;;;;5081890;28;20206;-63
2023/06/28 01:45:11;;;;;;;1.00;0.75;;;;;;;;;;5072888;28;20600;-64
2023/06/28 01:47:38;;;;;;;1.25;0.90;;;;;;;;;;5070640;28;20218;-64
2023/06/28 01:50:05;;;;;;;1.00;1.00;;;;;;;;;;5071521;28;20207;-64
2023/06/28 01:52:32;;;;;;;1.55;0.80;;;;;;;;;;5070435;28;20211;-63
2023/06/28 01:54:59;;;;;;;0.77;0.75;;;;;;;;;;5081095;28;20210;-63
2023/06/28 01:57:28;;;;;;;2.28;0.80;;;;;;;;;;5078335;28;20213;-64
2023/06/28 01:59:55;;;;;;;1.73;0.90;;;;;;;;;;5089207;28;20244;-64
2023/06/28 02:02:22;;;;;;;1.50;0.90;;;;;;;;;;5088405;28;20748;-63
2023/06/28 02:04:49;;;;;;;0.70;0.70;;;;;;;;;;5089756;28;20234;-63
2023/06/28 02:07:16;;;;;;;0.70;0.70;;;;;;;;;;5074026;28;20214;-64
2023/06/28 02:09:43;;;;;;;0.68;0.68;;;;;;;;;;5058547;28;20211;-64
2023/06/28 02:12:11;;;;;;;2.40;0.98;;;;;;;;;;5081052;28;20207;-64
2023/06/28 02:14:39;;;;;;;0.90;0.90;;;;;;;;;;5072205;28;20743;-64
2023/06/28 02:17:13;;;;;;;0.95;0.85;;;;;;;;;;5078731;28;20646;-64
2023/06/28 02:19:40;;;;;;;1.30;1.08;;;;;;;;;;5070595;28;20266;-64
2023/06/28 02:22:07;;;;;;;0.90;0.90;;;;;;;;;;5078752;28;20708;-64
2023/06/28 02:24:34;;;;;;;1.75;1.00;;;;;;;;;;5082483;28;20234;-63
2023/06/28 02:27:01;;;;;;;0.70;0.70;;;;;;;;;;5075073;28;20582;-64
2023/06/28 02:29:28;;;;;;;0.88;0.82;;;;;;;;;;5089779;28;20215;-64
2023/06/28 02:31:56;;;;;;;1.42;0.60;;;;;;;;;;5086066;28;20207;-64
2023/06/28 02:34:23;;;;;;;1.20;0.65;;;;;;;;;;5070415;28;20264;-64
2023/06/28 02:36:50;;;;;;;0.73;0.73;;;;;;;;;;5071389;28;20206;-64
2023/06/28 02:39:17;;;;;;;1.02;0.80;;;;;;;;;;5068111;28;20207;-64
2023/06/28 02:41:44;;;;;;;0.98;0.98;;;;;;;;;;5075956;28;20213;-64
2023/06/28 02:44:11;;;;;;;0.95;0.88;;;;;;;;;;5073927;28;20264;-64
2023/06/28 02:46:38;;;;;;;0.70;0.70;;;;;;;;;;5072572;28;20214;-64
2023/06/28 02:49:07;;;;;;;1.33;0.85;;;;;;;;;;5069189;28;20218;-63
2023/06/28 02:51:34;;;;;;;1.08;1.08;;;;;;;;;;5071223;28;20215;-64
2023/06/28 02:54:01;;;;;;;0.88;0.63;;;;;;;;;;5087738;28;20263;-63
2023/06/28 02:56:29;;;;;;;1.15;1.05;;;;;;;;;;5075588;28;20198;-63
2023/06/28 02:58:56;;;;;;;0.63;0.63;;;;;;;;;;5072140;28;20697;-64
2023/06/28 03:01:23;;;;;;;2.60;0.80;;;;;;;;;;5069200;28;20360;-64
2023/06/28 03:03:50;;;;;;;1.50;0.73;;;;;;;;;;5081840;28;20249;-64
2023/06/28 03:06:19;;;;;;;0.80;0.80;;;;;;;;;;5082920;28;20641;-63
2023/06/28 03:08:46;;;;;;;0.82;0.68;;;;;;;;;;5087676;28;20252;-63
2023/06/28 03:11:13;;;;;;;0.80;0.80;;;;;;;;;;5088723;28;20320;-63
2023/06/28 03:13:40;;;;;;;0.50;0.50;;;;;;;;;;5085459;28;20202;-63
2023/06/28 03:16:08;;;;;;;3.05;0.90;;;;;;;;;;5068322;28;20210;-64
2023/06/28 03:18:35;;;;;;;1.40;0.93;;;;;;;;;;5068203;28;20203;-64
2023/06/28 03:21:02;;;;;;;2.03;0.80;;;;;;;;;;5068468;28;20321;-63
2023/06/28 03:23:30;;;;;;;0.75;0.75;;;;;;;;;;5068637;28;20210;-64
2023/06/28 03:25:57;;;;;;;0.60;0.60;;;;;;;;;;5084454;28;20206;-64
2023/06/28 03:28:24;;;;;;;0.82;0.82;;;;;;;;;;5072986;28;20206;-63
2023/06/28 03:30:51;;;;;;;2.15;0.70;;;;;;;;;;5068882;28;20195;-63
2023/06/28 03:33:18;;;;;;;0.77;0.70;;;;;;;;;;5068485;28;20211;-64
2023/06/28 03:35:45;;;;;;;1.88;0.80;;;;;;;;;;5078379;28;20213;-64
2023/06/28 03:38:12;;;;;;;4.07;0.82;;;;;;;;;;5081159;28;20215;-63
2023/06/28 03:40:40;;;;;;;1.02;0.60;;;;;;;;;;5080110;28;20228;-64
2023/06/28 03:43:07;;;;;;;2.75;0.60;;;;;;;;;;5067772;28;20233;-64
2023/06/28 03:45:34;;;;;;;1.52;0.70;;;;;;;;;;5085004;28;20202;-64
2023/06/28 03:48:02;;;;;;;0.70;0.70;;;;;;;;;;5071627;28;20203;-64
2023/06/28 03:50:29;;;;;;;2.30;0.80;;;;;;;;;;5070409;28;20203;-64
2023/06/28 03:52:56;;;;;;;0.50;0.50;;;;;;;;;;5088321;28;20240;-64
2023/06/28 03:55:23;;;;;;;0.82;0.75;;;;;;;;;;5073065;28;20211;-64
2023/06/28 03:57:51;;;;;;;1.10;0.52;;;;;;;;;;5084331;28;20217;-64
2023/06/28 04:00:19;;;;;;;0.82;0.70;;;;;;;;;;5075591;28;20316;-64
2023/06/28 04:02:46;;;;;;;2.58;0.73;;;;;;;;;;5083468;28;20264;-63
2023/06/28 04:05:13;;;;;;;0.75;0.60;;;;;;;;;;5080237;28;20230;-65
2023/06/28 04:07:40;;;;;;;0.70;0.68;;;;;;;;;;5088729;28;20206;-64
2023/06/28 04:10:08;;;;;;;0.60;0.60;;;;;;;;;;5073517;28;20209;-64
2023/06/28 04:12:35;;;;;;;0.60;0.60;;;;;;;;;;5076438;28;20843;-67
2023/06/28 04:15:06;;;;;;;1.23;0.50;;;;;;;;;;5083154;28;20267;-70
2023/06/28 04:17:33;;;;;;;0.80;0.70;;;;;;;;;;5088368;28;20236;-72
2023/06/28 04:20:00;;;;;;;0.50;0.50;;;;;;;;;;5081892;28;20799;-72
2023/06/28 04:22:27;;;;;;;0.82;0.82;;;;;;;;;;5100388;28;20225;-72
2023/06/28 04:24:54;;;;;;;1.10;0.73;;;;;;;;;;5100212;28;20202;-72
2023/06/28 04:27:21;;;;;;;0.68;0.50;;;;;;;;;;5086694;28;20636;-72
2023/06/28 04:29:48;;;;;;;0.63;0.63;;;;;;;;;;5085644;28;20202;-71
2023/06/28 04:32:23;;;;;;;0.60;0.60;;;;;;;;;;5082862;28;20205;-72
2023/06/28 04:34:52;;;;;;;0.70;0.70;;;;;;;;;;5073733;28;20205;-72
2023/06/28 04:37:19;;;;;;;1.02;0.70;;;;;;;;;;5088518;28;20194;-72
2023/06/28 04:39:46;;;;;;;0.90;0.90;;;;;;;;;;5082809;28;20202;-72
2023/06/28 04:42:15;;;;;;;0.70;0.70;;;;;;;;;;5087019;28;20665;-72
2023/06/28 04:44:43;;;;;;;0.70;0.70;;;;;;;;;;5074531;28;20207;-72
2023/06/28 04:47:15;;;;;;;2.28;0.90;;;;;;;;;;5085031;28;20237;-73
2023/06/28 04:49:46;;;;;;;1.65;0.85;;;;;;;;;;5071728;28;20223;-71
2023/06/28 04:52:14;;;;;;;0.70;0.70;;;;;;;;;;5068573;28;20627;-71
2023/06/28 04:54:41;;;;;;;0.90;0.50;;;;;;;;;;5088057;28;20660;-71
2023/06/28 04:57:08;;;;;;;0.93;0.60;;;;;;;;;;5080312;28;20611;-70
2023/06/28 04:59:35;;;;;;;0.70;0.70;;;;;;;;;;5080906;28;20201;-71
2023/06/28 05:02:05;;;;;;;2.00;0.80;;;;;;;;;;5092054;28;20226;-71
2023/06/28 05:04:32;;;;;;;1.17;0.80;;;;;;;;;;5084637;28;20254;-71
2023/06/28 05:07:03;;;;;;;0.82;0.82;;;;;;;;;;5074327;28;20644;-71
2023/06/28 05:09:30;;;;;;;0.60;0.60;;;;;;;;;;5087082;28;20195;-72
2023/06/28 05:11:57;;;;;;;0.65;0.65;;;;;;;;;;5072369;28;20289;-72
2023/06/28 05:14:25;;;;;;;3.15;0.93;;;;;;;;;;5075945;28;20194;-72
2023/06/28 05:16:52;;;;;;;0.75;0.70;;;;;;;;;;5092115;28;20313;-72
2023/06/28 05:19:19;;;;;;;1.17;0.77;;;;;;;;;;5091878;28;20293;-71
2023/06/28 05:21:46;;;;;;;0.60;0.60;;;;;;;;;;5072216;28;20231;-72
2023/06/28 05:24:14;;;;;;;5.25;1.42;;;;;;;;;;5073602;28;20199;-72
2023/06/28 05:26:41;;;;;;;0.70;0.70;;;;;;;;;;5076000;28;20742;-72
2023/06/28 05:29:08;;;;;;;1.42;0.80;;;;;;;;;;5075511;28;20205;-72
2023/06/28 05:31:37;;;;;;;0.77;0.55;;;;;;;;;;5089904;28;20210;-71
2023/06/28 05:34:05;;;;;;;3.33;0.70;;;;;;;;;;5079063;28;20202;-72
2023/06/28 05:36:32;;;;;;;1.20;0.73;;;;;;;;;;5083376;28;20241;-73
2023/06/28 05:38:59;;;;;;;1.23;0.80;;;;;;;;;;5102060;28;20216;-68
2023/06/28 05:41:46;;;;;;;1.65;0.82;;;;;;;;;;5083321;28;20712;-69
2023/06/28 05:44:15;;;;;;;1.65;0.85;;;;;;;;;;5087019;28;20581;-71
2023/06/28 05:46:42;;;;;;;1.65;0.80;;;;;;;;;;5078665;28;20206;-71
2023/06/28 05:49:09;;;;;;;1.70;0.88;;;;;;;;;;5074376;28;20195;-71
2023/06/28 05:51:36;;;;;;;0.70;0.70;;;;;;;;;;5076630;28;20207;-71
2023/06/28 05:54:03;;;;;;;2.25;0.90;;;;;;;;;;5073929;28;20225;-71
2023/06/28 05:56:32;;;;;;;2.92;1.30;;;;;;;;;;5083345;28;20195;-71
2023/06/28 05:58:59;;;;;;;2.08;0.85;;;;;;;;;;5082173;28;20207;-71
2023/06/28 06:01:26;;;;;;;0.68;0.68;;;;;;;;;;5080461;28;20226;-71
2023/06/28 06:03:53;;;;;;;0.98;0.60;;;;;;;;;;5084637;28;20234;-70
2023/06/28 06:06:20;;;;;;;1.20;0.70;;;;;;;;;;5094388;28;20206;-71
2023/06/28 06:08:47;;;;;;;1.95;0.80;;;;;;;;;;5081054;28;20203;-70
2023/06/28 06:11:15;;;;;;;1.50;0.85;;;;;;;;;;5082973;28;20207;-70
2023/06/28 06:13:43;;;;;;;1.17;0.80;;;;;;;;;;5076105;28;20237;-70
2023/06/28 06:16:10;;;;;;;0.63;0.63;;;;;;;;;;5089868;28;20537;-71
2023/06/28 06:18:40;;;;;;;0.85;0.60;;;;;;;;;;5073976;28;20215;-70
2023/06/28 06:21:07;;;;;;;0.70;0.70;;;;;;;;;;5084625;28;20218;-70
2023/06/28 06:23:34;;;;;;;0.70;0.70;;;;;;;;;;5072069;28;20207;-70
2023/06/28 06:26:01;;;;;;;1.88;1.00;;;;;;;;;;5089194;28;20201;-70
2023/06/28 06:28:28;;;;;;;0.82;0.70;;;;;;;;;;5079956;28;20206;-70
2023/06/28 06:30:56;;;;;;;0.80;0.80;;;;;;;;;;5073192;28;20661;-70
2023/06/28 06:33:23;;;;;;;0.68;0.68;;;;;;;;;;5090903;28;20217;-69
2023/06/28 06:35:50;;;;;;;1.00;1.00;;;;;;;;;;5076154;28;20209;-71
2023/06/28 06:38:17;;;;;;;0.65;0.65;;;;;;;;;;5081085;28;20203;-71
2023/06/28 06:40:45;;;;;;;0.90;0.80;;;;;;;;;;5088797;28;20206;-71
2023/06/28 06:43:12;;;;;;;0.88;0.88;;;;;;;;;;5074648;28;20490;-71
2023/06/28 06:45:39;;;;;;;1.48;0.73;;;;;;;;;;5071112;28;20306;-70
2023/06/28 06:48:07;;;;;;;1.17;0.65;;;;;;;;;;5069663;28;20260;-71
2023/06/28 06:50:34;;;;;;;1.00;0.80;;;;;;;;;;5069871;28;20202;-71
2023/06/28 06:53:02;;;;;;;0.60;0.60;;;;;;;;;;5083115;28;20198;-71
2023/06/28 06:55:29;;;;;;;1.08;0.70;;;;;;;;;;5076762;28;20218;-71
2023/06/28 06:57:56;;;;;;;1.02;0.90;;;;;;;;;;5077242;28;20290;-71
2023/06/28 07:00:23;;;;;;;0.82;0.80;;;;;;;;;;5081184;28;20199;-71
2023/06/28 07:02:50;;;;;;;0.75;0.75;;;;;;;;;;5078400;28;20227;-71
2023/06/28 07:05:18;;;;;;;1.55;1.00;;;;;;;;;;5072763;28;20235;-71
2023/06/28 07:07:45;;;;;;;1.08;0.80;;;;;;;;;;5065327;28;20214;-71
2023/06/28 07:10:12;;;;;;;0.95;0.63;;;;;;;;;;5076217;28;20202;-71
2023/06/28 07:12:39;;;;;;;2.28;0.90;;;;;;;;;;5098792;28;20570;-71
2023/06/28 07:15:07;;;;;;;0.93;0.88;;;;;;;;;;5088335;28;20209;-71
2023/06/28 07:17:34;;;;;;;1.27;0.70;;;;;;;;;;5086271;28;20210;-71
2023/06/28 07:20:01;;;;;;;0.50;0.50;;;;;;;;;;5079838;28;20648;-70
2023/06/28 07:22:29;;;;;;;1.30;0.70;;;;;;;;;;5068797;28;20234;-70
2023/06/28 07:24:56;;;;;;;0.73;0.73;;;;;;;;;;5077774;28;20868;-70
2023/06/28 07:27:23;;;;;;;1.80;0.90;;;;;;;;;;5088064;28;20214;-71
2023/06/28 07:29:50;;;;;;;0.80;0.75;;;;;;;;;;5074191;28;20213;-70
2023/06/28 07:32:17;;;;;;;0.63;0.63;;;;;;;;;;5077410;28;20203;-70
2023/06/28 07:34:44;;;;;;;1.98;0.75;;;;;;;;;;5068853;28;20272;-71
2023/06/28 07:37:11;;;;;;;1.13;0.63;;;;;;;;;;5069313;28;20203;-66
2023/06/28 07:39:40;;;;;;;0.70;0.70;;;;;;;;;;5080119;28;20246;-61
2023/06/28 07:42:07;;;;;;;0.73;0.73;;;;;;;;;;5085855;28;20643;-65
2023/06/28 07:44:34;;;;;;;0.70;0.60;;;;;;;;;;5068351;28;20210;-66
2023/06/28 07:47:01;;;;;;;3.13;1.05;;;;;;;;;;5076191;28;20291;-68
2023/06/28 07:49:28;;;;;;;2.53;0.98;;;;;;;;;;5079144;28;20241;-64
2023/06/28 07:51:55;;;;;;;4.85;0.95;;;;;;;;;;5071813;28;20203;-64
2023/06/28 07:54:23;;;;;;;0.82;0.50;;;;;;;;;;5072213;28;20199;-64
2023/06/28 07:56:51;;;;;;;0.60;0.60;;;;;;;;;;5067288;28;20264;-64
2023/06/28 07:59:19;;;;;;;0.65;0.65;;;;;;;;;;5067642;28;20636;-64
2023/06/28 08:01:46;;;;;;;0.80;0.80;;;;;;;;;;5072069;28;20222;-69
2023/06/28 08:04:15;;;;;;;1.27;0.82;;;;;;;;;;5067713;28;20616;-64
2023/06/28 08:06:42;;;;;;;0.65;0.65;;;;;;;;;;5069666;28;20207;-64
2023/06/28 08:09:09;;;;;;;1.10;0.70;;;;;;;;;;5083586;28;20210;-64
2023/06/28 08:11:36;;;;;;;0.70;0.70;;;;;;;;;;5083814;28;20202;-64
2023/06/28 08:14:05;;;;;;;1.15;0.70;;;;;;;;;;5071655;28;20210;-64
2023/06/28 08:16:32;;;;;;;0.63;0.63;;;;;;;;;;5082857;28;20202;-64
2023/06/28 08:18:59;;;;;;;1.00;0.63;;;;;;;;;;5070964;28;20238;-64
2023/06/28 08:21:26;;;;;;;2.50;0.88;;;;;;;;;;5080202;28;20704;-64
2023/06/28 08:23:53;;;;;;;0.80;0.80;;;;;;;;;;5079343;28;20579;-64
2023/06/28 08:26:20;;;;;;;1.10;0.68;;;;;;;;;;5069035;28;20696;-65
2023/06/28 08:28:47;;;;;;;2.17;0.60;;;;;;;;;;5068951;28;20210;-65
2023/06/28 08:31:16;;;;;;;0.77;0.77;;;;;;;;;;5086089;28;20202;-64
2023/06/28 08:33:43;;;;;;;2.40;0.77;;;;;;;;;;5088567;28;20202;-64
2023/06/28 08:36:10;;;;;;;1.27;1.00;;;;;;;;;;5088828;28;20198;-65
2023/06/28 08:38:37;;;;;;;0.75;0.75;;;;;;;;;;5073720;28;20256;-65
2023/06/28 08:41:04;;;;;;;0.75;0.75;;;;;;;;;;5082879;28;20557;-65
2023/06/28 08:43:32;;;;;;;0.73;0.73;;;;;;;;;;5088286;28;20582;-64
2023/06/28 08:45:59;;;;;;;1.02;0.82;;;;;;;;;;5071227;28;20535;-64
2023/06/28 08:48:27;;;;;;;1.15;0.77;;;;;;;;;;5087601;28;20209;-65
2023/06/28 08:50:55;;;;;;;0.65;0.65;;;;;;;;;;5090003;28;20206;-65
2023/06/28 08:53:24;;;;;;;0.95;0.82;;;;;;;;;;5084375;28;20194;-65
2023/06/28 08:55:51;;;;;;;1.10;0.80;;;;;;;;;;5091603;28;20210;-64
2023/06/28 08:58:18;;;;;;;1.38;1.00;;;;;;;;;;5089869;28;20210;-65
2023/06/28 09:00:45;;;;;;;1.17;0.73;;;;;;;;;;5083416;28;21100;-64
2023/06/28 09:03:13;;;;;;;0.65;0.65;;;;;;;;;;5086703;28;20218;-65
2023/06/28 09:05:42;;;;;;;1.13;1.05;;;;;;;;;;5084697;28;20296;-65
2023/06/28 09:08:10;;;;;;;3.17;0.90;;;;;;;;;;5069724;28;20234;-65
2023/06/28 09:10:37;;;;;;;1.75;1.13;;;;;;;;;;5070602;28;20252;-65
2023/06/28 09:13:05;;;;;;;0.60;0.60;;;;;;;;;;5077994;28;20194;-64
2023/06/28 09:15:32;;;;;;;1.27;0.80;;;;;;;;;;5090215;28;20215;-64
2023/06/28 09:17:59;;;;;;;0.85;0.80;;;;;;;;;;5080075;28;20260;-65
2023/06/28 09:20:26;;;;;;;1.85;0.90;;;;;;;;;;5071088;28;20209;-65
2023/06/28 09:22:58;;;;;;;2.92;0.80;;;;;;;;;;5084814;28;20275;-65
2023/06/28 09:25:27;;;;;;;1.15;0.98;;;;;;;;;;5082774;28;20728;-65
2023/06/28 09:27:54;;;;;;;2.28;0.90;;;;;;;;;;5089813;28;20343;-65
2023/06/28 09:30:22;;;;;;;1.77;1.10;;;;;;;;;;5082586;28;20203;-65
2023/06/28 09:32:51;;;;;;;2.30;0.88;;;;;;;;;;5089904;28;20289;-65
2023/06/28 09:35:18;;;;;;;1.17;1.00;;;;;;;;;;5075075;28;20637;-65
2023/06/28 09:37:48;;;;;;;0.90;0.90;;;;;;;;;;5067162;28;20293;-65
2023/06/28 09:40:17;;;;;;;1.05;0.80;;;;;;;;;;5090304;28;20229;-65
2023/06/28 09:42:45;;;;;;;1.83;0.88;;;;;;;;;;5082667;28;20313;-65
2023/06/28 09:45:12;;;;;;;1.23;1.10;;;;;;;;;;5084541;28;20233;-65
2023/06/28 09:47:39;;;;;;;0.82;0.80;;;;;;;;;;5081609;28;20701;-64
2023/06/28 09:50:06;;;;;;;1.00;1.00;;;;;;;;;;5070962;28;20301;-65
2023/06/28 09:52:36;;;;;;;1.50;0.75;;;;;;;;;;5070473;28;20199;-69
2023/06/28 09:55:04;;;;;;;1.27;1.13;;;;;;;;;;5076849;28;20230;-64
2023/06/28 09:57:33;;;;;;;0.90;0.85;;;;;;;;;;5075516;28;20572;-65
2023/06/28 10:00:01;;;;;;;1.75;0.80;;;;;;;;;;5073877;28;20206;-66
2023/06/28 10:02:28;;;;;;;1.10;1.00;;;;;;;;;;5084679;28;20229;-68
2023/06/28 10:04:56;;;;;;;0.93;0.88;;;;;;;;;;5075773;28;20242;-78
2023/06/28 10:07:24;;;;;;;0.88;0.73;;;;;;;;;;5106363;28;20201;-68
2023/06/28 10:09:51;;;;;;;2.47;0.80;;;;;;;;;;5076181;28;20203;-67
2023/06/28 10:12:20;;;;;;;1.65;0.80;;;;;;;;;;5066587;28;20202;-67
2023/06/28 10:14:50;;;;;;;3.20;1.15;;;;;;;;;;5078853;28;20286;-67
2023/06/28 10:17:18;;;;;;;1.80;1.00;;;;;;;;;;5070183;28;20210;-68
2023/06/28 10:19:45;;;;;;;1.50;0.85;;;;;;;;;;5071711;28;20219;-68
2023/06/28 10:22:13;;;;;;;6.22;1.45;;;;;;;;;;5105934;28;20229;-67
2023/06/28 10:24:41;;;;;;;1.00;1.00;;;;;;;;;;5087989;28;20218;-68
2023/06/28 10:27:08;;;;;;;3.50;0.90;;;;;;;;;;5080752;28;20232;-67
2023/06/28 10:29:35;;;;;;;3.03;1.17;;;;;;;;;;5066435;28;20214;-67
2023/06/28 10:32:04;;;;;;;1.00;1.00;;;;;;;;;;5085816;28;20268;-67
2023/06/28 10:34:32;;;;;;;0.93;0.93;;;;;;;;;;5069973;28;20210;-67
2023/06/28 10:36:59;;;;;;;1.85;1.05;;;;;;;;;;5068987;28;20578;-66
2023/06/28 10:39:26;;;;;;;0.95;0.95;;;;;;;;;;5069567;28;20767;-67
2023/06/28 10:41:56;;;;;;;1.05;1.05;;;;;;;;;;5073764;28;20206;-67
2023/06/28 10:44:23;;;;;;;1.00;1.00;;;;;;;;;;5081397;28;20297;-67
2023/06/28 10:46:52;;;;;;;1.08;1.08;;;;;;;;;;5084219;28;20610;-67
2023/06/28 10:49:22;;;;;;;1.73;1.08;;;;;;;;;;5086952;28;20244;-67
2023/06/28 10:51:51;;;;;;;1.23;1.13;;;;;;;;;;5086581;28;20306;-66
2023/06/28 10:54:18;;;;;;;2.95;1.33;;;;;;;;;;5081570;28;20202;-63
2023/06/28 10:56:45;;;;;;;1.33;1.23;;;;;;;;;;5083411;28;20206;-64
2023/06/28 10:59:13;;;;;;;1.38;1.10;;;;;;;;;;5086726;28;20194;-64
2023/06/28 11:01:41;;;;;;;1.95;1.30;;;;;;;;;;5073105;28;20222;-63
2023/06/28 11:04:17;;;;;;;1.30;1.20;;;;;;;;;;5080109;28;20283;-66
2023/06/28 11:06:46;;;;;;;1.83;1.30;;;;;;;;;;5071890;28;20240;-63
2023/06/28 11:09:14;;;;;;;4.15;0.98;;;;;;;;;;5080179;28;20199;-63
2023/06/28 11:11:42;;;;;;;2.15;1.38;;;;;;;;;;5082785;28;20778;-63
2023/06/28 11:14:18;;;;;;;5.45;1.20;;;;;;;;;;5074705;28;20267;-63
2023/06/28 11:16:48;;;;;;;5.45;1.60;;;;;;;;;;5070466;28;20218;-63
2023/06/28 11:19:15;;;;;;;4.28;1.10;;;;;;;;;;5088116;28;20306;-63
2023/06/28 11:21:42;;;;;;;2.50;1.50;;;;;;;;;;5075555;28;20239;-71
2023/06/28 11:24:11;;;;;;;2.10;1.08;;;;;;;;;;5082966;28;20222;-64
2023/06/28 11:26:40;;;;;;;1.45;1.20;;;;;;;;;;5082845;28;20612;-68
2023/06/28 11:29:17;;;;;;;2.88;1.27;;;;;;;;;;5077636;28;20210;-68
2023/06/28 11:31:47;;;;;;;1.15;1.02;;;;;;;;;;5066424;28;20889;-68
2023/06/28 11:34:15;;;;;;;2.33;1.02;;;;;;;;;;5088260;28;20657;-68
2023/06/28 11:36:43;;;;;;;3.30;1.02;;;;;;;;;;5068446;28;20214;-68
2023/06/28 11:39:14;;;;;;;1.02;1.02;;;;;;;;;;5072536;28;20685;-68
2023/06/28 11:41:42;;;;;;;2.40;0.90;;;;;;;;;;5077968;28;20245;-68
2023/06/28 11:44:09;;;;;;;3.42;1.00;;;;;;;;;;5085210;28;20248;-67
2023/06/28 11:46:36;;;;;;;3.03;0.93;;;;;;;;;;5083714;28;20252;-67
2023/06/28 11:49:04;;;;;;;1.38;1.10;;;;;;;;;;5092112;28;20201;-68
2023/06/28 11:51:31;;;;;;;2.30;1.00;;;;;;;;;;5095714;28;20569;-67
2023/06/28 11:53:59;;;;;;;0.95;0.95;;;;;;;;;;5072574;28;20653;-67
2023/06/28 11:56:38;;;;;;;0.90;0.90;;;;;;;;;;5077648;28;20214;-67
2023/06/28 11:59:15;;;;;;;1.00;1.00;;;;;;;;;;5072636;28;20263;-68
2023/06/28 12:01:42;;;;;;;1.20;1.20;;;;;;;;;;5099500;28;20278;-68
2023/06/28 12:04:16;;;;;;;1.15;1.00;;;;;;;;;;5103821;28;20233;-68
2023/06/28 12:06:43;;;;;;;1.05;1.05;;;;;;;;;;5078405;28;20210;-67
2023/06/28 12:09:20;;;;;;;0.90;0.90;;;;;;;;;;5085046;28;20208;-67
2023/06/28 12:11:53;;;;;;;1.33;0.88;;;;;;;;;;5076144;28;20202;-68
2023/06/28 12:14:20;;;;;;;2.33;0.95;;;;;;;;;;5076732;28;20213;-68
2023/06/28 12:16:47;;;;;;;1.30;1.20;;;;;;;;;;5070381;28;20294;-68
2023/06/28 12:19:17;;;;;;;1.23;1.10;;;;;;;;;;5075731;28;20718;-68
2023/06/28 12:21:44;;;;;;;1.30;1.15;;;;;;;;;;5086300;28;20333;-68
2023/06/28 12:24:16;;;;;;;0.65;0.65;;;;;;;;;;5083282;28;20219;-68
2023/06/28 12:26:45;;;;;;;0.80;0.80;;;;;;;;;;5067625;28;20203;-66
2023/06/28 12:29:13;;;;;;;1.48;0.90;;;;;;;;;;5073883;28;20210;-63
2023/06/28 12:31:41;;;;;;;0.77;0.77;;;;;;;;;;5078190;28;20207;-63
2023/06/28 12:34:09;;;;;;;1.50;0.90;;;;;;;;;;5077562;28;20214;-63
2023/06/28 12:36:36;;;;;;;0.88;0.88;;;;;;;;;;5080008;28;20302;-64
2023/06/28 12:39:03;;;;;;;1.00;1.00;;;;;;;;;;5074452;28;20207;-61
2023/06/28 12:41:30;;;;;;;0.70;0.70;;;;;;;;;;5068446;28;20207;-62
2023/06/28 12:43:57;;;;;;;1.15;0.80;;;;;;;;;;5081549;28;20696;-62
2023/06/28 12:46:27;;;;;;;2.05;1.00;;;;;;;;;;5075113;28;20853;-62
2023/06/28 12:48:55;;;;;;;1.10;0.90;;;;;;;;;;5079623;28;20206;-62
2023/06/28 12:51:22;;;;;;;1.00;0.93;;;;;;;;;;5067999;28;20622;-61
2023/06/28 12:53:50;;;;;;;0.93;0.90;;;;;;;;;;5068698;28;20637;-62
2023/06/28 12:56:17;;;;;;;0.90;0.90;;;;;;;;;;5081693;28;20210;-62
2023/06/28 12:58:45;;;;;;;0.90;0.90;;;;;;;;;;5083052;28;20203;-62
2023/06/28 13:01:12;;;;;;;1.20;1.10;;;;;;;;;;5074921;28;20275;-63
2023/06/28 13:03:40;;;;;;;1.17;1.17;;;;;;;;;;5087241;28;20234;-62
2023/06/28 13:06:08;;;;;;;0.98;0.98;;;;;;;;;;5088016;28;20661;-63
2023/06/28 13:08:35;;;;;;;0.85;0.85;;;;;;;;;;5087062;28;20213;-62
2023/06/28 13:11:02;;;;;;;1.00;1.00;;;;;;;;;;5086936;28;20210;-62
2023/06/28 13:13:29;;;;;;;1.23;1.13;;;;;;;;;;5087023;28;20214;-62
2023/06/28 13:15:56;;;;;;;1.30;1.30;;;;;;;;;;5087461;28;20259;-63
2023/06/28 13:18:23;;;;;;;1.85;1.00;;;;;;;;;;5090145;28;20259;-64
2023/06/28 13:20:52;;;;;;;1.00;1.00;;;;;;;;;;5091250;28;20610;-63
2023/06/28 13:23:19;;;;;;;0.85;0.85;;;;;;;;;;5090997;28;20723;-65
2023/06/28 13:25:47;;;;;;;1.08;1.00;;;;;;;;;;5091660;28;20727;-64
2023/06/28 13:28:15;;;;;;;1.10;1.10;;;;;;;;;;5086592;28;20581;-65
2023/06/28 13:30:42;;;;;;;1.25;1.25;;;;;;;;;;5091579;28;20202;-62
2023/06/28 13:33:09;;;;;;;2.97;0.95;;;;;;;;;;5089336;28;20198;-61
2023/06/28 13:35:36;;;;;;;1.30;1.17;;;;;;;;;;5090539;28;20207;-62
2023/06/28 13:38:05;;;;;;;0.98;0.98;;;;;;;;;;5089892;28;20669;-62
2023/06/28 13:40:32;;;;;;;1.38;1.15;;;;;;;;;;5091072;28;20206;-61
2023/06/28 13:42:59;;;;;;;1.13;1.10;;;;;;;;;;5090386;28;20210;-62
2023/06/28 13:45:26;;;;;;;3.72;1.30;;;;;;;;;;5090120;28;20258;-61
2023/06/28 13:47:53;;;;;;;0.90;0.90;;;;;;;;;;5090631;28;20211;-62
2023/06/28 13:50:20;;;;;;;1.08;1.08;;;;;;;;;;5090757;28;20210;-62
2023/06/28 13:52:47;;;;;;;1.55;1.02;;;;;;;;;;5090167;28;20210;-64
2023/06/28 13:55:16;;;;;;;1.20;1.20;;;;;;;;;;5073871;28;20230;-62
2023/06/28 13:57:43;;;;;;;2.08;1.15;;;;;;;;;;5070557;28;20203;-64
2023/06/28 14:00:10;;;;;;;2.10;1.30;;;;;;;;;;5074177;28;20194;-61
2023/06/28 14:02:37;;;;;;;1.20;1.20;;;;;;;;;;5090319;28;20221;-61
2023/06/28 14:05:05;;;;;;;2.28;1.20;;;;;;;;;;5074475;28;20239;-62
2023/06/28 14:07:32;;;;;;;2.35;1.20;;;;;;;;;;5076901;28;20272;-62
2023/06/28 14:09:59;;;;;;;1.48;1.30;;;;;;;;;;5081883;28;20214;-62
2023/06/28 14:12:28;;;;;;;0.90;0.90;;;;;;;;;;5076097;28;20648;-62
2023/06/28 14:14:55;;;;;;;1.58;1.10;;;;;;;;;;5089660;28;20682;-62
2023/06/28 14:17:22;;;;;;;1.10;1.10;;;;;;;;;;5088373;28;20218;-63
2023/06/28 14:19:49;;;;;;;1.95;1.00;;;;;;;;;;5085631;28;20577;-63
2023/06/28 14:22:16;;;;;;;1.27;1.10;;;;;;;;;;5090340;28;20226;-63
2023/06/28 14:24:43;;;;;;;0.90;0.90;;;;;;;;;;5090272;28;20233;-63
2023/06/28 14:27:10;;;;;;;1.00;1.00;;;;;;;;;;5085822;28;20320;-64
2023/06/28 14:29:39;;;;;;;1.08;1.08;;;;;;;;;;5087719;28;20225;-63
2023/06/28 14:32:06;;;;;;;1.25;1.23;;;;;;;;;;5086967;28;20214;-63
2023/06/28 14:34:33;;;;;;;1.35;1.10;;;;;;;;;;5089731;28;20210;-63
2023/06/28 14:37:00;;;;;;;1.05;1.00;;;;;;;;;;5089635;28;20207;-63
2023/06/28 14:39:28;;;;;;;1.10;1.00;;;;;;;;;;5089661;28;20622;-64
2023/06/28 14:41:55;;;;;;;1.15;1.10;;;;;;;;;;5088099;28;20343;-63
2023/06/28 14:44:22;;;;;;;0.98;0.98;;;;;;;;;;5076698;28;20279;-63
2023/06/28 14:46:50;;;;;;;1.30;1.20;;;;;;;;;;5088971;28;20290;-61